Time;durP1;ratioP1;P1;durP2;ratioP2;P2;SDS_P1;SDS_P2;PMS_P1;PMS_P2;Temp;Humidity;BMP_temperature;BMP_pressure;BME280_temperature;BME280_humidity;BME280_pressure;Samples;Min_cycle;Max_cycle;Signal;HPM_P1;HPM_P2
2021/03/24 00:01:45;;;;;;;5.70;3.45;;;;;;;0.10;61.39;93422.41;5088301;28;20031;-79
2021/03/24 00:04:11;;;;;;;8.65;4.20;;;;;;;0.10;61.61;93422.41;5088217;28;20051;-79
2021/03/24 00:06:37;;;;;;;6.40;3.60;;;;;;;0.12;61.54;93409.03;5088657;28;20036;-80
2021/03/24 00:09:09;;;;;;;9.25;4.15;;;;;;;0.18;61.40;93402.75;5089708;28;20020;-80
2021/03/24 00:11:34;;;;;;;;;;;;;;;0.12;62.07;93396.75;5088097;28;20024;-80
2021/03/24 00:13:59;;;;;;;7.35;3.85;;;;;;;0.03;62.15;93400.13;5087615;28;20295;-80
2021/03/24 00:16:25;;;;;;;8.80;3.63;;;;;;;0.01;62.54;93397.75;5089245;28;20486;-79
2021/03/24 00:18:50;;;;;;;8.25;3.50;;;;;;;0.03;62.77;93400.13;5087820;28;20028;-79
2021/03/24 00:21:16;;;;;;;8.18;4.05;;;;;;;0.04;62.59;93396.44;5087872;28;20024;-80
2021/03/24 00:23:41;;;;;;;7.32;3.20;;;;;;;0.06;62.71;93405.63;5086996;28;20097;-80
2021/03/24 00:26:07;;;;;;;9.85;3.67;;;;;;;0.04;62.78;93404.31;5087768;28;20024;-80
2021/03/24 00:28:32;;;;;;;6.75;3.65;;;;;;;0.08;62.70;93403.56;5087438;28;20031;-80
2021/03/24 00:30:58;;;;;;;7.38;3.30;;;;;;;-0.02;62.48;93408.72;5089013;28;20035;-79
2021/03/24 00:33:25;;;;;;;6.82;3.45;;;;;;;0.04;63.24;93399.06;5088287;28;20430;-80
2021/03/24 00:35:51;;;;;;;9.73;4.07;;;;;;;0.03;63.33;93393.03;5089438;28;20047;-79
2021/03/24 00:38:19;;;;;;;7.60;3.80;;;;;;;-0.01;64.02;93399.84;5087960;28;20020;-80
2021/03/24 00:40:49;;;;;;;6.85;4.10;;;;;;;0.03;63.90;93402.75;5088319;28;20097;-80
2021/03/24 00:43:15;;;;;;;9.25;4.13;;;;;;;-0.08;64.18;93397.47;5089523;28;20039;-79
2021/03/24 00:45:41;;;;;;;7.93;4.22;;;;;;;-0.05;64.84;93406.66;5090414;28;20028;-80
2021/03/24 00:48:13;;;;;;;12.85;5.07;;;;;;;-0.10;65.78;93401.38;5093450;28;20034;-79
2021/03/24 00:50:39;;;;;;;8.30;3.65;;;;;;;-0.13;66.20;93417.63;5092087;28;20085;-80
2021/03/24 00:53:04;;;;;;;6.53;4.07;;;;;;;-0.18;66.84;93400.06;5091838;28;20032;-79
2021/03/24 00:55:29;;;;;;;7.75;4.05;;;;;;;-0.35;68.80;93410.72;5091837;28;20484;-80
2021/03/24 00:57:55;;;;;;;8.23;4.25;;;;;;;-0.48;71.16;93406.75;5091905;28;20032;-79
2021/03/24 01:00:23;;;;;;;8.98;5.13;;;;;;;-0.55;71.95;93413.25;5093351;28;20024;-80
2021/03/24 01:02:48;;;;;;;9.30;4.95;;;;;;;-0.64;73.19;93412.94;5091605;28;20032;-78
2021/03/24 01:05:17;;;;;;;13.02;5.28;;;;;;;-0.75;75.48;93399.03;5091380;28;20036;-78
2021/03/24 01:07:43;;;;;;;9.60;5.90;;;;;;;-0.90;75.79;93402.34;5093127;28;20024;-78
2021/03/24 01:10:15;;;;;;;9.13;5.43;;;;;;;-0.93;75.64;93392.38;5091820;28;20045;-79
2021/03/24 01:12:41;;;;;;;11.63;5.65;;;;;;;-0.94;75.67;93393.41;5091903;28;20020;-79
2021/03/24 01:15:08;;;;;;;10.85;5.22;;;;;;;-0.91;73.65;93384.28;5092624;28;20475;-78
2021/03/24 01:17:34;;;;;;;12.20;7.90;;;;;;;-0.88;72.69;93368.06;5091439;28;20133;-80
2021/03/24 01:19:59;;;;;;;10.00;5.95;;;;;;;-0.86;72.21;93376.47;5091463;28;20035;-79
2021/03/24 01:22:24;;;;;;;11.93;6.05;;;;;;;-0.79;71.80;93378.84;5089961;28;20530;-79
2021/03/24 01:24:50;;;;;;;8.82;5.38;;;;;;;-0.83;70.80;93368.88;5092575;28;20070;-80
2021/03/24 01:27:15;;;;;;;9.95;6.13;;;;;;;-0.79;71.22;93371.00;5091095;28;20533;-79
2021/03/24 01:29:41;;;;;;;9.77;5.47;;;;;;;-0.71;70.94;93347.75;5091356;28;20024;-80
2021/03/24 01:32:07;;;;;;;14.60;6.32;;;;;;;-0.71;70.29;93339.91;5091369;28;20021;-80
2021/03/24 01:34:32;;;;;;;11.20;5.95;;;;;;;-0.70;69.89;93343.31;5092344;28;20019;-79
2021/03/24 01:36:57;;;;;;;15.52;6.45;;;;;;;-0.64;69.71;93366.63;5092414;28;20020;-79
2021/03/24 01:39:23;;;;;;;9.95;6.57;;;;;;;-0.69;68.60;93353.53;5090936;28;20056;-79
2021/03/24 01:41:48;;;;;;;12.50;7.32;;;;;;;-0.65;69.12;93364.28;5090977;28;20028;-79
2021/03/24 01:44:13;;;;;;;10.95;6.20;;;;;;;-0.67;68.60;93348.00;5091095;28;20089;-79
2021/03/24 01:46:47;;;;;;;12.23;6.65;;;;;;;-0.60;68.56;93343.34;5091930;28;20042;-79
2021/03/24 01:49:26;;;;;;;13.27;6.40;;;;;;;-0.58;68.97;93343.88;5092172;28;20031;-79
2021/03/24 01:52:03;;;;;;;13.25;7.05;;;;;;;-0.56;68.64;93341.78;5090819;28;20111;-78
2021/03/24 01:54:35;;;;;;;16.65;7.82;;;;;;;-0.57;69.62;93342.84;5090299;28;20072;-79
2021/03/24 01:57:04;;;;;;;12.13;6.65;;;;;;;-0.56;70.95;93336.56;5090409;28;20032;-79
2021/03/24 01:59:30;;;;;;;13.40;7.28;;;;;;;-0.66;72.75;93350.38;5073997;28;20109;-79
2021/03/24 02:01:56;;;;;;;13.32;7.45;;;;;;;-0.93;73.06;93331.44;5090492;28;20035;-79
2021/03/24 02:04:23;;;;;;;10.50;7.38;;;;;;;-0.86;73.78;93353.69;5090390;28;20024;-79
2021/03/24 02:07:09;;;;;;;11.52;7.75;;;;;;;-0.92;73.58;93339.00;5091799;28;20409;-79
2021/03/24 02:09:41;;;;;;;16.77;8.02;;;;;;;-0.89;72.63;93332.50;5090229;28;20056;-78
2021/03/24 02:12:26;;;;;;;14.00;7.85;;;;;;;-0.87;71.59;93343.50;5091671;28;20027;-79
2021/03/24 02:14:51;;;;;;;25.10;8.98;;;;;;;-0.85;71.01;93349.25;5090517;28;20053;-79
2021/03/24 02:17:21;;;;;;;15.70;8.68;;;;;;;-0.75;70.86;93345.88;5091956;28;20032;-79
2021/03/24 02:19:57;;;;;;;12.57;7.80;;;;;;;-0.73;70.50;93330.72;5090123;28;20024;-78
2021/03/24 02:22:25;;;;;;;15.13;7.32;;;;;;;-0.65;69.68;93331.03;5091463;28;20093;-78
2021/03/24 02:25:06;;;;;;;14.25;7.45;;;;;;;-0.65;69.43;93331.03;5091338;28;20050;-79
2021/03/24 02:27:41;;;;;;;12.15;6.78;;;;;;;-0.61;69.46;93323.47;5090068;28;20026;-79
2021/03/24 02:30:07;;;;;;;13.75;7.07;;;;;;;-0.50;70.06;93335.53;5090402;28;20055;-80
2021/03/24 02:32:37;;;;;;;13.40;7.15;;;;;;;-0.60;69.43;93335.50;5090134;28;20516;-80
2021/03/24 02:35:08;;;;;;;14.88;7.35;;;;;;;-0.52;70.00;93349.94;5089967;28;20107;-79
2021/03/24 02:37:35;;;;;;;17.70;7.20;;;;;;;-0.55;70.14;93329.47;5091503;28;20099;-79
2021/03/24 02:40:07;;;;;;;17.38;6.57;;;;;;;-0.63;69.93;93323.72;5089964;28;20479;-80
2021/03/24 02:42:32;;;;;;;13.95;8.65;;;;;;;-0.63;71.44;93315.09;5089423;28;20027;-80
2021/03/24 02:44:59;;;;;;;15.07;8.05;;;;;;;-0.68;71.28;93322.91;5089629;28;20074;-80
2021/03/24 02:47:25;;;;;;;14.13;7.28;;;;;;;-0.67;71.11;93301.72;5089678;28;20497;-81
2021/03/24 02:49:51;;;;;;;15.18;8.40;;;;;;;-0.67;71.20;93320.03;5089749;28;20024;-79
2021/03/24 02:52:16;;;;;;;13.65;8.07;;;;;;;-0.65;70.48;93323.19;5089732;28;20063;-80
2021/03/24 02:54:44;;;;;;;9.38;6.78;;;;;;;-0.71;70.44;93318.16;5089304;28;20067;-79
2021/03/24 02:57:10;;;;;;;19.75;8.68;;;;;;;-0.67;70.48;93333.13;5090988;28;20062;-81
2021/03/24 02:59:35;;;;;;;14.82;7.70;;;;;;;-0.73;70.47;93322.88;5089587;28;20024;-80
2021/03/24 03:02:14;;;;;;;13.93;8.18;;;;;;;-0.70;70.85;93310.06;5090660;28;20032;-81
2021/03/24 03:04:46;;;;;;;21.20;9.55;;;;;;;-0.67;71.13;93301.72;5090703;28;20336;-80
2021/03/24 03:07:26;;;;;;;16.23;8.20;;;;;;;-0.62;71.02;93314.03;5090435;28;20024;-80
2021/03/24 03:09:57;;;;;;;18.20;9.15;;;;;;;-0.63;71.27;93310.63;5090733;28;20082;-79
2021/03/24 03:12:34;;;;;;;17.63;9.17;;;;;;;-0.67;71.28;93320.03;5090679;28;20459;-80
2021/03/24 03:15:04;;;;;;;14.23;7.53;;;;;;;-0.66;71.84;93315.56;5090518;28;20331;-80
2021/03/24 03:18:02;;;;;;;16.10;8.43;;;;;;;-0.70;71.91;93319.75;5090616;28;20024;-80
2021/03/24 03:20:33;;;;;;;16.38;8.00;;;;;;;-0.74;72.28;93329.94;5080803;28;20119;-80
2021/03/24 03:23:19;;;;;;;13.90;8.00;;;;;;;-0.76;72.85;93326.78;5088905;28;20063;-80
2021/03/24 03:25:54;;;;;;;16.95;8.68;;;;;;;-0.76;73.50;93339.88;5089189;28;20127;-80
2021/03/24 03:28:20;;;;;;;19.38;9.43;;;;;;;-0.92;74.38;93343.47;5089254;28;20096;-80
2021/03/24 03:30:49;;;;;;;21.52;10.15;;;;;;;-0.99;76.32;93348.91;5088992;28;20039;-80
2021/03/24 03:33:19;;;;;;;22.38;10.15;;;;;;;-1.09;78.93;93330.56;5090199;28;20028;-79
2021/03/24 03:35:44;;;;;;;21.92;11.25;;;;;;;-1.14;80.10;93328.72;5089051;28;20087;-79
2021/03/24 03:38:15;;;;;;;22.65;12.10;;;;;;;-1.17;79.90;93316.13;5088805;28;20515;-78
2021/03/24 03:40:43;;;;;;;19.95;11.85;;;;;;;-1.21;80.63;93325.50;5090314;28;20453;-80
2021/03/24 03:43:11;;;;;;;23.60;11.63;;;;;;;-1.20;80.26;93334.94;5088731;28;20081;-79
2021/03/24 03:45:42;;;;;;;20.08;11.38;;;;;;;-1.24;78.88;93323.41;5088383;28;20028;-80
2021/03/24 03:48:09;;;;;;;17.70;10.30;;;;;;;-1.26;77.31;93317.66;5087111;28;20102;-79
2021/03/24 03:50:35;;;;;;;21.55;10.27;;;;;;;-1.23;76.66;93323.16;5087296;28;20114;-80
2021/03/24 03:53:13;;;;;;;17.55;10.30;;;;;;;-1.15;75.69;93319.28;5087790;28;20127;-78
2021/03/24 03:55:52;;;;;;;16.08;10.15;;;;;;;-1.11;74.58;93304.66;5087428;28;20126;-80
2021/03/24 03:58:57;;;;;;;16.20;7.85;;;;;;;-1.10;73.72;93348.09;5088648;28;20038;-80
2021/03/24 04:01:35;;;;;;;13.65;8.40;;;;;;;-1.01;73.67;93317.78;5058596;28;20035;-79
2021/03/24 04:04:09;;;;;;;13.60;8.02;;;;;;;-1.00;72.97;93331.63;5088726;28;20111;-79
2021/03/24 04:06:47;;;;;;;20.20;8.93;;;;;;;-1.03;72.69;93325.09;5090071;28;20057;-79
2021/03/24 04:09:13;;;;;;;16.58;8.50;;;;;;;-0.91;72.75;93334.59;5088445;28;20057;-78
2021/03/24 04:11:44;;;;;;;16.90;8.85;;;;;;;-0.86;72.05;93342.44;5088481;28;20050;-79
2021/03/24 04:14:16;;;;;;;20.45;8.40;;;;;;;-0.83;72.77;93341.94;5088358;28;20055;-79
2021/03/24 04:16:44;;;;;;;16.00;8.50;;;;;;;-0.87;72.28;93340.88;5088613;28;20023;-80
2021/03/24 04:19:13;;;;;;;17.55;8.52;;;;;;;-0.90;72.27;93326.47;5089679;28;20016;-79
2021/03/24 04:21:41;;;;;;;17.02;9.05;;;;;;;-0.95;72.54;93350.00;5094090;28;20460;-80
2021/03/24 04:24:23;;;;;;;20.13;9.25;;;;;;;-0.86;72.74;93342.44;5089873;28;20035;-80
2021/03/24 04:26:55;;;;;;;18.80;9.90;;;;;;;-0.89;72.12;93342.97;5093790;28;20023;-80
2021/03/24 04:29:36;;;;;;;17.50;9.32;;;;;;;-0.93;72.70;93355.75;5092397;28;20032;-79
2021/03/24 04:32:06;;;;;;;18.00;9.77;;;;;;;-0.96;73.02;93358.09;5094019;28;20040;-79
2021/03/24 04:34:33;;;;;;;16.10;8.77;;;;;;;-0.92;72.89;93348.69;5092292;28;20258;-79
2021/03/24 04:37:25;;;;;;;15.55;9.38;;;;;;;-0.99;72.72;93367.22;5092354;28;20155;-78
2021/03/24 04:39:55;;;;;;;22.70;9.30;;;;;;;-0.96;72.95;93356.25;5092346;28;20119;-79
2021/03/24 04:42:26;;;;;;;22.67;10.25;;;;;;;-0.95;73.40;93364.91;5093176;28;20396;-79
2021/03/24 04:44:55;;;;;;;19.83;9.88;;;;;;;-0.96;74.52;93358.09;5092186;28;20097;-80
2021/03/24 04:47:33;;;;;;;21.73;10.85;;;;;;;-0.91;75.18;93369.38;5091847;28;20024;-79
2021/03/24 04:50:07;;;;;;;17.33;10.07;;;;;;;-1.03;75.46;93363.56;5091371;28;20023;-80
2021/03/24 04:52:35;;;;;;;19.20;9.88;;;;;;;-1.09;75.56;93360.09;5090363;28;20047;-79
2021/03/24 04:55:07;;;;;;;16.83;10.35;;;;;;;-1.10;75.50;93363.78;5093157;28;20044;-79
2021/03/24 04:57:34;;;;;;;17.05;9.85;;;;;;;-1.14;75.05;93362.72;5092919;28;20016;-79
2021/03/24 05:00:21;;;;;;;26.98;10.80;;;;;;;-1.19;75.91;93367.88;5091869;28;20032;-79
2021/03/24 05:02:53;;;;;;;25.45;11.75;;;;;;;-1.18;75.99;93386.97;5091631;28;20115;-79
2021/03/24 05:05:25;;;;;;;21.92;11.05;;;;;;;-1.16;76.42;93372.63;5091340;28;20024;-79
2021/03/24 05:08:14;;;;;;;31.70;18.17;;;;;;;-1.11;76.74;93371.88;5093166;28;20109;-79
2021/03/24 05:10:40;;;;;;;20.92;12.48;;;;;;;-1.13;76.47;93377.34;5090734;28;20101;-79
2021/03/24 05:13:22;;;;;;;23.00;12.10;;;;;;;-1.13;76.82;93372.13;5091707;28;20063;-79
2021/03/24 05:16:02;;;;;;;20.55;10.85;;;;;;;-1.11;77.07;93379.72;5092654;28;20580;-78
2021/03/24 05:18:27;;;;;;;19.10;11.45;;;;;;;-1.19;76.72;93377.56;5091175;28;20024;-78
2021/03/24 05:21:27;;;;;;;22.08;11.63;;;;;;;-1.19;76.52;93386.19;5091670;28;20115;-78
2021/03/24 05:23:59;;;;;;;22.25;11.73;;;;;;;-1.14;76.65;93390.66;5091354;28;20028;-78
2021/03/24 05:26:36;;;;;;;20.30;11.88;;;;;;;-1.17;76.46;93399.03;5091323;28;20016;-80
2021/03/24 05:29:11;;;;;;;22.23;10.45;;;;;;;-1.10;76.32;93399.59;5091538;28;20036;-78
2021/03/24 05:31:45;;;;;;;23.58;11.35;;;;;;;-1.13;77.06;93400.88;5089991;28;20028;-78
2021/03/24 05:34:16;;;;;;;22.52;10.80;;;;;;;-1.08;77.50;93403.56;5091268;28;20023;-78
2021/03/24 05:36:49;;;;;;;18.90;11.18;;;;;;;-1.12;78.00;93412.13;5092573;28;20123;-78
2021/03/24 05:39:30;;;;;;;20.15;10.27;;;;;;;-1.09;78.36;93411.63;5092459;28;20472;-79
2021/03/24 05:42:11;;;;;;;34.23;11.60;;;;;;;-1.08;78.47;93421.84;5090950;28;20062;-79
2021/03/24 05:45:01;;;;;;;19.40;10.52;;;;;;;-1.12;78.31;93428.63;5091833;28;20032;-77
2021/03/24 05:48:00;;;;;;;23.80;10.68;;;;;;;-1.05;78.40;93429.19;5090836;28;20114;-78
2021/03/24 05:50:44;;;;;;;20.58;10.23;;;;;;;-1.05;78.00;93417.94;5090858;28;20024;-78
2021/03/24 05:53:40;;;;;;;20.42;9.75;;;;;;;-1.06;77.87;93445.94;5091776;28;20020;-77
2021/03/24 05:56:17;;;;;;;20.52;9.65;;;;;;;-1.09;77.67;93459.50;5090714;28;20049;-77
2021/03/24 05:59:00;;;;;;;15.98;9.35;;;;;;;-1.16;77.05;93450.28;5090605;28;20495;-77
2021/03/24 06:01:35;;;;;;;14.80;9.25;;;;;;;-1.17;77.41;93467.81;5091725;28;20028;-78
2021/03/24 06:04:03;;;;;;;20.50;9.45;;;;;;;-1.05;77.12;93471.03;5090566;28;20024;-79
2021/03/24 06:06:59;;;;;;;16.00;8.82;;;;;;;-1.06;76.18;93468.66;5091877;28;20034;-79
2021/03/24 06:09:45;;;;;;;16.00;8.70;;;;;;;-1.08;76.39;93482.03;5091928;28;20106;-79
2021/03/24 06:12:36;;;;;;;18.92;8.65;;;;;;;-1.05;78.27;93476.28;5091832;28;20027;-77
2021/03/24 06:15:07;;;;;;;19.67;8.60;;;;;;;-1.09;77.98;93490.09;5091765;28;20019;-78
2021/03/24 06:18:05;;;;;;;18.80;10.00;;;;;;;-1.09;78.22;93490.88;5089625;28;20024;-77
2021/03/24 06:20:40;;;;;;;16.35;10.13;;;;;;;-1.06;78.01;93505.28;5088875;28;20277;-78
2021/03/24 06:23:33;;;;;;;20.55;9.85;;;;;;;-0.98;77.48;93496.97;5090200;28;20036;-77
2021/03/24 06:26:23;;;;;;;19.50;9.57;;;;;;;-0.98;77.57;93512.69;5089872;28;20030;-77
2021/03/24 06:29:09;;;;;;;18.77;10.00;;;;;;;-0.91;76.42;93523.75;5090968;28;20395;-75
2021/03/24 06:32:08;;;;;;;22.15;9.43;;;;;;;-0.90;77.05;93535.78;5039243;28;20028;-77
2021/03/24 06:35:01;;;;;;;13.25;8.63;;;;;;;-0.82;76.61;93542.38;5088542;28;20059;-78
2021/03/24 06:37:51;;;;;;;16.45;9.15;;;;;;;-0.73;76.82;93540.91;5089997;28;20024;-77
2021/03/24 06:40:41;;;;;;;15.32;6.25;;;;;;;-0.67;74.94;93545.13;5089566;28;20031;-77
2021/03/24 06:43:37;;;;;;;19.52;8.00;;;;;;;-0.55;73.99;93541.53;5090797;28;20066;-77
2021/03/24 06:46:24;;;;;;;25.75;6.38;;;;;;;-0.39;76.41;93548.44;5090501;28;20111;-62
2021/03/24 06:48:52;;;;;;;9.10;4.03;;;;;;;-0.13;72.46;93554.63;5091446;28;20045;-80
2021/03/24 06:51:42;;;;;;;10.30;4.22;;;;;;;-0.06;71.78;93563.06;5091363;28;20028;-79
2021/03/24 06:54:10;;;;;;;11.68;3.00;;;;;;;-0.05;68.73;93569.09;5093982;28;20518;-80
2021/03/24 06:57:00;;;;;;;5.57;2.33;;;;;;;-0.04;67.69;93578.50;5089995;28;20032;-82
2021/03/24 06:59:32;;;;;;;11.27;4.68;;;;;;;0.05;64.67;93591.94;5088670;28;20024;-80
2021/03/24 07:02:05;;;;;;;5.88;1.90;;;;;;;0.11;65.59;93591.72;5088537;28;20387;-80
2021/03/24 07:04:46;;;;;;;3.60;1.15;;;;;;;0.34;64.10;93590.50;5088883;28;20119;-80
2021/03/24 07:07:33;;;;;;;1.42;0.85;;;;;;;0.56;63.17;93600.81;5090215;28;20020;-80
2021/03/24 07:10:02;;;;;;;3.33;1.60;;;;;;;0.74;62.36;93614.53;5090577;28;20106;-81
2021/03/24 07:12:35;;;;;;;4.43;1.42;;;;;;;0.86;60.56;93617.72;5089242;28;20119;-78
2021/03/24 07:15:19;;;;;;;2.80;1.00;;;;;;;1.04;58.73;93616.47;5089157;28;20048;-81
2021/03/24 07:17:56;;;;;;;2.25;1.00;;;;;;;1.21;56.88;93618.84;5088993;28;20039;-78
2021/03/24 07:20:56;;;;;;;1.73;1.00;;;;;;;1.23;55.83;93626.47;5088930;28;20036;-79
2021/03/24 07:23:55;;;;;;;8.32;3.20;;;;;;;1.24;55.43;93631.44;5078702;28;20495;-80
2021/03/24 07:26:58;;;;;;;7.85;3.25;;;;;;;1.25;54.38;93634.88;5089955;28;20128;-79
2021/03/24 07:29:39;;;;;;;12.18;4.55;;;;;;;1.16;53.72;93642.44;4990041;28;20026;-79
2021/03/24 07:32:10;;;;;;;4.25;2.20;;;;;;;0.79;53.47;93640.78;5082726;28;20036;-76
2021/03/24 07:34:53;;;;;;;20.80;8.40;;;;;;;0.46;54.80;93649.81;5088774;28;20095;-78
2021/03/24 07:37:28;;;;;;;6.30;2.58;;;;;;;0.34;54.84;93655.25;5088736;28;20024;-79
2021/03/24 07:40:12;;;;;;;4.53;1.88;;;;;;;0.29;55.63;93660.50;5088826;28;20471;-78
2021/03/24 07:43:10;;;;;;;3.13;1.40;;;;;;;0.33;55.66;93672.84;5089951;28;20032;-77
2021/03/24 07:45:44;;;;;;;2.33;1.17;;;;;;;0.33;54.98;93682.53;5087908;28;20433;-77
2021/03/24 07:48:32;;;;;;;6.28;2.70;;;;;;;0.28;55.38;93679.88;5088971;28;20396;-78
2021/03/24 07:51:09;;;;;;;6.20;2.53;;;;;;;0.28;54.94;93685.13;5088738;28;20511;-77
2021/03/24 07:53:50;;;;;;;4.97;2.00;;;;;;;0.18;54.99;93685.84;5087906;28;20036;-77
2021/03/24 07:56:40;;;;;;;3.65;1.42;;;;;;;0.07;55.56;93690.22;5089876;28;20034;-77
2021/03/24 07:59:11;;;;;;;2.75;1.30;;;;;;;0.24;55.31;93689.28;5088666;28;20572;-77
2021/03/24 08:02:11;;;;;;;2.55;1.35;;;;;;;0.29;56.05;93692.72;5088194;28;20039;-77
2021/03/24 08:05:11;;;;;;;2.00;1.15;;;;;;;0.44;55.69;93699.91;5088118;28;20423;-77
2021/03/24 08:07:49;;;;;;;1.83;1.10;;;;;;;0.50;55.23;93700.72;5087413;28;20120;-78
2021/03/24 08:10:36;;;;;;;3.10;1.33;;;;;;;0.63;55.18;93716.00;5088367;28;20035;-77
2021/03/24 08:13:02;;;;;;;2.67;1.05;;;;;;;0.56;50.21;93704.94;5089584;28;20024;-79
2021/03/24 08:15:59;;;;;;;2.13;1.02;;;;;;;0.54;52.63;93720.94;5088225;28;20099;-75
2021/03/24 08:18:36;;;;;;;6.13;2.90;;;;;;;0.64;54.40;93701.84;5088430;28;20119;-76
2021/03/24 08:21:14;;;;;;;4.05;2.00;;;;;;;0.74;53.93;93716.84;5089249;28;20038;-76
2021/03/24 08:24:05;;;;;;;6.28;3.50;;;;;;;0.88;53.35;93720.59;5088952;28;20013;-76
2021/03/24 08:26:40;;;;;;;7.18;3.60;;;;;;;0.99;52.65;93710.91;5087937;28;20403;-76
2021/03/24 08:29:17;;;;;;;5.13;3.67;;;;;;;1.14;53.02;93718.06;5088228;28;20020;-76
2021/03/24 08:31:49;;;;;;;3.72;1.15;;;;;;;1.24;51.45;93722.56;5089107;28;20031;-75
2021/03/24 08:34:17;;;;;;;3.83;1.40;;;;;;;1.26;51.14;93716.00;5088209;28;20027;-75
2021/03/24 08:37:37;;;;;;;1.35;0.85;;;;;;;1.40;50.46;93717.09;5087674;28;20056;-75
2021/03/24 08:40:14;;;;;;;2.97;1.40;;;;;;;1.49;51.27;93721.84;4990973;28;20033;-74
2021/03/24 08:43:16;;;;;;;2.70;1.17;;;;;;;1.59;50.69;93720.03;5088834;28;20040;-73
2021/03/24 08:45:58;;;;;;;2.75;1.33;;;;;;;1.71;49.62;93722.41;5087641;28;20074;-75
2021/03/24 08:48:47;;;;;;;4.32;1.92;;;;;;;1.80;49.79;93727.94;5089415;28;20392;-76
2021/03/24 08:51:36;;;;;;;4.00;1.90;;;;;;;1.81;49.71;93724.25;5087846;28;20020;-76
2021/03/24 08:54:28;;;;;;;3.20;1.35;;;;;;;1.87;50.58;93725.84;5087839;28;20048;-76
2021/03/24 08:57:02;;;;;;;3.80;1.47;;;;;;;2.01;48.60;93718.22;5036625;28;20036;-76
2021/03/24 08:59:40;;;;;;;10.27;1.55;;;;;;;2.01;50.54;93718.22;5089066;28;20020;-76
2021/03/24 09:02:34;;;;;;;6.35;1.48;;;;;;;2.09;49.52;93711.66;5087398;28;20028;-76
2021/03/24 09:05:30;;;;;;;1.90;0.98;;;;;;;2.20;50.05;93714.03;5087394;28;20399;-76
2021/03/24 09:08:17;;;;;;;2.63;1.17;;;;;;;2.29;49.63;93716.13;5091150;28;20032;-77
2021/03/24 09:10:43;;;;;;;3.53;2.00;;;;;;;2.36;49.68;93711.38;5091504;28;20028;-76
2021/03/24 09:13:30;;;;;;;8.10;1.63;;;;;;;2.43;48.70;93711.91;5091098;28;20035;-79
2021/03/24 09:16:10;;;;;;;3.45;2.13;;;;;;;2.44;49.16;93718.72;5092249;28;20106;-76
2021/03/24 09:18:38;;;;;;;5.85;1.60;;;;;;;2.43;50.14;93719.00;5091286;28;20497;-75
2021/03/24 09:21:28;;;;;;;4.95;2.08;;;;;;;2.41;49.63;93719.28;5092474;28;20028;-77
2021/03/24 09:24:24;;;;;;;3.72;1.63;;;;;;;2.37;50.01;93731.38;5092254;28;20035;-77
2021/03/24 09:27:13;;;;;;;3.50;1.48;;;;;;;2.13;50.26;93737.16;5091263;28;20577;-76
2021/03/24 09:30:01;;;;;;;3.45;1.90;;;;;;;2.07;48.79;93730.31;5091170;28;20031;-76
2021/03/24 09:32:47;;;;;;;3.05;1.30;;;;;;;2.01;48.39;93741.88;5074373;28;20516;-76
2021/03/24 09:35:19;;;;;;;10.15;2.95;;;;;;;2.07;48.32;93735.56;5090900;28;20020;-77
2021/03/24 09:37:47;;;;;;;;;;;;;;;2.14;45.37;93728.22;5091544;28;20035;-78
2021/03/24 09:40:28;;;;;;;3.20;1.35;;;;;;;2.05;46.55;93740.31;5092084;28;19951;-78
2021/03/24 09:42:56;;;;;;;2.05;0.90;;;;;;;2.09;45.45;93749.25;5086932;28;20028;-78
2021/03/24 09:45:28;;;;;;;1.30;0.85;;;;;;;2.20;45.45;93753.47;5091836;28;20031;-77
2021/03/24 09:48:06;;;;;;;3.75;1.45;;;;;;;2.42;45.85;93757.66;5090862;28;20081;-76
2021/03/24 09:51:00;;;;;;;9.30;1.90;;;;;;;2.50;45.76;93762.38;5088756;28;20129;-79
2021/03/24 09:53:28;;;;;;;3.67;1.42;;;;;;;2.65;45.45;93756.34;5090242;28;20491;-75
2021/03/24 09:55:56;;;;;;;4.63;1.38;;;;;;;2.69;45.79;93761.88;5092060;28;20028;-76
2021/03/24 09:58:21;;;;;;;7.75;2.08;;;;;;;2.72;44.40;93762.09;5090030;28;20024;-76
2021/03/24 10:01:12;;;;;;;5.65;2.22;;;;;;;2.70;44.95;93766.84;5090688;28;20038;-77
2021/03/24 10:03:48;;;;;;;8.07;1.70;;;;;;;2.69;45.35;93767.91;5090379;28;20463;-76
2021/03/24 10:06:22;;;;;;;3.45;1.42;;;;;;;2.57;44.64;93773.44;5090250;28;20119;-76
2021/03/24 10:09:00;;;;;;;3.45;1.10;;;;;;;2.65;45.00;93772.13;5090534;28;20081;-76
2021/03/24 10:11:29;;;;;;;3.22;1.63;;;;;;;2.70;44.73;93784.47;5091398;28;20020;-77
2021/03/24 10:14:02;;;;;;;4.25;1.50;;;;;;;2.77;44.45;93775.25;5090513;28;20028;-76
2021/03/24 10:16:31;;;;;;;4.63;1.38;;;;;;;2.56;43.33;93779.75;5089688;28;20043;-77
2021/03/24 10:19:04;;;;;;;6.60;1.25;;;;;;;2.56;43.90;93777.13;5091597;28;20028;-77
2021/03/24 10:21:33;;;;;;;3.95;1.55;;;;;;;2.53;44.59;93785.56;5089929;28;20114;-77
2021/03/24 10:24:13;;;;;;;3.08;1.42;;;;;;;2.48;43.30;93782.91;5090734;28;20036;-76
2021/03/24 10:26:45;;;;;;;9.57;1.95;;;;;;;2.26;44.47;93790.28;5089869;28;20453;-77
2021/03/24 10:29:15;;;;;;;4.07;1.83;;;;;;;2.23;46.23;93785.56;5090068;28;20479;-77
2021/03/24 10:31:57;;;;;;;8.80;3.15;;;;;;;2.28;46.86;93785.53;5089892;28;20530;-77
2021/03/24 10:34:33;;;;;;;4.72;2.40;;;;;;;2.39;45.77;93787.91;5089465;28;20023;-75
2021/03/24 10:37:18;;;;;;;3.22;1.65;;;;;;;2.67;44.56;93785.81;5089821;28;20040;-75
2021/03/24 10:39:55;;;;;;;6.32;1.80;;;;;;;2.88;44.88;93781.28;5089883;28;20040;-79
2021/03/24 10:42:29;;;;;;;3.92;1.92;;;;;;;2.90;45.15;93783.66;5089812;28;20058;-79
2021/03/24 10:45:24;;;;;;;4.68;1.90;;;;;;;3.00;44.68;93784.44;5087694;28;20089;-78
2021/03/24 10:48:05;;;;;;;4.47;1.13;;;;;;;2.78;41.78;93786.56;5089152;28;20020;-79
2021/03/24 10:51:00;;;;;;;11.83;2.30;;;;;;;2.69;38.54;93803.97;5089370;28;20019;-80
2021/03/24 10:53:31;;;;;;;3.85;1.38;;;;;;;2.53;37.44;93784.78;5091066;28;20385;-80
2021/03/24 10:56:31;;;;;;;4.67;1.13;;;;;;;2.46;39.15;93785.00;5085458;28;20384;-80
2021/03/24 10:59:19;;;;;;;3.40;1.00;;;;;;;2.38;40.02;93793.44;5088777;28;20024;-79
2021/03/24 11:02:30;;;;;;;3.75;1.00;;;;;;;2.50;38.66;93785.28;5089060;28;20414;-79
2021/03/24 11:05:10;;;;;;;6.43;1.92;;;;;;;2.58;37.32;93777.63;5048548;28;20105;-80
2021/03/24 11:07:45;;;;;;;10.95;1.80;;;;;;;2.57;37.46;93780.56;5087176;28;20487;-80
2021/03/24 11:10:23;;;;;;;4.28;1.30;;;;;;;2.30;37.72;93786.06;5084163;28;20112;-80
2021/03/24 11:12:56;;;;;;;11.18;1.85;;;;;;;2.42;37.86;93786.59;5088202;28;20024;-79
2021/03/24 11:15:57;;;;;;;4.88;1.15;;;;;;;2.50;36.23;93783.44;5087202;28;20016;-79
2021/03/24 11:18:50;;;;;;;4.22;1.60;;;;;;;2.28;37.65;93788.16;5000595;28;20509;-79
2021/03/24 11:21:41;;;;;;;3.30;1.08;;;;;;;2.39;38.77;93784.50;5088664;28;20477;-79
2021/03/24 11:24:33;;;;;;;7.55;1.58;;;;;;;2.73;38.18;93783.97;5088763;28;20127;-79
2021/03/24 11:27:05;;;;;;;3.78;1.10;;;;;;;2.88;35.88;93781.28;5079876;28;20044;-79
2021/03/24 11:29:33;;;;;;;4.30;1.65;;;;;;;2.64;35.86;93777.66;5088145;28;20068;-79
2021/03/24 11:32:11;;;;;;;6.38;1.90;;;;;;;2.47;37.57;93764.78;5090073;28;20032;-80
2021/03/24 11:34:47;;;;;;;10.75;2.17;;;;;;;2.57;39.60;93770.81;5088613;28;20027;-80
2021/03/24 11:37:19;;;;;;;4.18;1.77;;;;;;;2.77;40.23;93772.63;5088717;28;20080;-81
2021/03/24 11:39:51;;;;;;;2.22;1.38;;;;;;;3.06;38.42;93769.41;5088834;28;20563;-78
2021/03/24 11:42:20;;;;;;;2.30;1.00;;;;;;;3.31;36.38;93757.22;5088825;28;20031;-76
2021/03/24 11:44:49;;;;;;;9.13;1.55;;;;;;;3.50;34.06;93758.19;5088831;28;20040;-75
2021/03/24 11:47:21;;;;;;;2.97;1.27;;;;;;;3.64;34.48;93758.34;5088470;28;20120;-75
2021/03/24 11:49:59;;;;;;;4.13;2.05;;;;;;;3.81;35.63;93750.13;5088669;28;20053;-75
2021/03/24 11:52:49;;;;;;;6.88;2.00;;;;;;;4.02;35.69;93762.09;5088611;28;20036;-76
2021/03/24 11:55:46;;;;;;;9.73;1.50;;;;;;;3.99;34.94;93753.97;5088442;28;20070;-75
2021/03/24 11:58:23;;;;;;;2.70;1.30;;;;;;;3.95;34.13;93745.03;5088582;28;20034;-75
2021/03/24 12:01:10;;;;;;;3.80;1.63;;;;;;;4.04;34.00;93753.91;5090222;28;20042;-76
2021/03/24 12:03:44;;;;;;;4.03;1.10;;;;;;;4.02;33.53;93742.84;5088816;28;20505;-76
2021/03/24 12:06:33;;;;;;;2.42;1.10;;;;;;;3.90;32.27;93747.69;5089723;28;20373;-74
2021/03/24 12:09:10;;;;;;;6.50;1.48;;;;;;;3.82;33.25;93747.19;5088748;28;20093;-75
2021/03/24 12:11:41;;;;;;;2.70;1.48;;;;;;;3.78;32.38;93746.16;5088712;28;20087;-75
2021/03/24 12:14:15;;;;;;;2.85;1.38;;;;;;;3.51;32.69;93748.44;5088513;28;20020;-75
2021/03/24 12:17:02;;;;;;;8.63;1.35;;;;;;;3.54;32.61;93732.06;5088439;28;20032;-77